Corn, Oklahoma
Current Conditions -  °F | °C
As of 8:15 AM on Monday 22 Dec 2014 (Local Time) from KOJA Reporting Station
Haze Haze  
Wind Chill: 36°   Ceiling: Unl
Heat Index: 41°   Visibility: 5mi
Dew Point: 41°   Wind: 7mph
Humidity: 100%   Direction: 280°W
Pressure: 29.6"   Gusts: NA
Location:  35.38°N, 98.78°W
Report Text: KOJA 221415Z AUTO 28006KT 5SM BR CLR 05/05 A2960 RMK AO2
Loading
Personal Weather Stations






























Interactive Weather Map New forecast layout! Learn more

10-Day Weather Forecast

Advertisements
Track Severe Weather on mobile